sensor_id;sensor_type;location;lat;lon;timestamp;P1;durP1;ratioP1;P2;durP2;ratioP2
12459;SDS011;6295;49.452;8.466;2023-07-28T03:13:57;3.97;;;3.67;;
12459;SDS011;6295;49.452;8.466;2023-07-28T03:17:59;4.20;;;3.80;;
12459;SDS011;6295;49.452;8.466;2023-07-28T03:22:01;4.27;;;3.87;;
12459;SDS011;6295;49.452;8.466;2023-07-28T03:26:03;4.33;;;3.90;;
12459;SDS011;6295;49.452;8.466;2023-07-28T03:30:08;4.17;;;3.77;;
12459;SDS011;6295;49.452;8.466;2023-07-28T03:34:10;4.07;;;3.67;;
12459;SDS011;6295;49.452;8.466;2023-07-28T03:38:12;3.50;;;3.20;;
12459;SDS011;6295;49.452;8.466;2023-07-28T03:42:15;3.90;;;3.50;;
12459;SDS011;6295;49.452;8.466;2023-07-28T03:46:18;5.13;;;3.30;;
12459;SDS011;6295;49.452;8.466;2023-07-28T03:50:20;3.50;;;3.20;;
12459;SDS011;6295;49.452;8.466;2023-07-28T03:54:24;4.00;;;3.60;;
12459;SDS011;6295;49.452;8.466;2023-07-28T03:58:27;3.50;;;3.20;;
12459;SDS011;6295;49.452;8.466;2023-07-28T04:02:30;3.73;;;3.43;;
12459;SDS011;6295;49.452;8.466;2023-07-28T04:06:39;3.60;;;3.13;;
12459;SDS011;6295;49.452;8.466;2023-07-28T04:10:42;3.60;;;3.30;;
12459;SDS011;6295;49.452;8.466;2023-07-28T04:14:48;3.70;;;3.40;;
12459;SDS011;6295;49.452;8.466;2023-07-28T04:18:55;3.77;;;3.30;;
12459;SDS011;6295;49.452;8.466;2023-07-28T04:22:59;3.30;;;3.00;;
12459;SDS011;6295;49.452;8.466;2023-07-28T04:27:01;3.20;;;2.90;;
12459;SDS011;6295;49.452;8.466;2023-07-28T04:31:04;3.23;;;2.93;;
12459;SDS011;6295;49.452;8.466;2023-07-28T04:35:08;3.00;;;2.80;;
12459;SDS011;6295;49.452;8.466;2023-07-28T04:39:10;3.07;;;2.77;;
12459;SDS011;6295;49.452;8.466;2023-07-28T04:43:12;3.67;;;2.80;;
12459;SDS011;6295;49.452;8.466;2023-07-28T04:47:14;2.77;;;2.50;;
12459;SDS011;6295;49.452;8.466;2023-07-28T04:51:18;2.87;;;2.67;;
12459;SDS011;6295;49.452;8.466;2023-07-28T04:55:20;3.20;;;2.90;;
12459;SDS011;6295;49.452;8.466;2023-07-28T04:59:22;3.37;;;2.57;;
12459;SDS011;6295;49.452;8.466;2023-07-28T05:03:24;2.83;;;2.63;;
12459;SDS011;6295;49.452;8.466;2023-07-28T05:07:28;3.27;;;2.60;;
12459;SDS011;6295;49.452;8.466;2023-07-28T05:11:31;2.63;;;2.43;;
12459;SDS011;6295;49.452;8.466;2023-07-28T05:15:33;2.80;;;2.60;;
12459;SDS011;6295;49.452;8.466;2023-07-28T05:19:35;2.60;;;2.40;;
12459;SDS011;6295;49.452;8.466;2023-07-28T05:23:38;2.77;;;2.47;;
12459;SDS011;6295;49.452;8.466;2023-07-28T05:27:41;2.90;;;2.70;;
12459;SDS011;6295;49.452;8.466;2023-07-28T05:31:43;2.70;;;2.50;;
12459;SDS011;6295;49.452;8.466;2023-07-28T05:35:45;2.90;;;2.40;;
12459;SDS011;6295;49.452;8.466;2023-07-28T05:39:49;2.70;;;2.50;;
12459;SDS011;6295;49.452;8.466;2023-07-28T05:43:51;2.47;;;2.20;;
12459;SDS011;6295;49.452;8.466;2023-07-28T05:47:53;2.53;;;2.33;;
12459;SDS011;6295;49.452;8.466;2023-07-28T05:51:55;2.50;;;2.30;;
12459;SDS011;6295;49.452;8.466;2023-07-28T05:55:59;2.43;;;2.23;;
12459;SDS011;6295;49.452;8.466;2023-07-28T06:00:02;2.40;;;2.20;;
12459;SDS011;6295;49.452;8.466;2023-07-28T06:04:05;2.30;;;2.10;;
12459;SDS011;6295;49.452;8.466;2023-07-28T06:08:07;2.50;;;2.30;;
12459;SDS011;6295;49.452;8.466;2023-07-28T06:12:11;2.30;;;2.10;;
12459;SDS011;6295;49.452;8.466;2023-07-28T06:16:14;2.23;;;2.03;;
12459;SDS011;6295;49.452;8.466;2023-07-28T06:20:16;2.60;;;2.40;;
12459;SDS011;6295;49.452;8.466;2023-07-28T06:24:19;2.10;;;1.90;;
12459;SDS011;6295;49.452;8.466;2023-07-28T06:28:23;2.20;;;2.10;;
12459;SDS011;6295;49.452;8.466;2023-07-28T06:32:25;2.37;;;2.10;;
12459;SDS011;6295;49.452;8.466;2023-07-28T06:36:28;2.37;;;2.17;;
12459;SDS011;6295;49.452;8.466;2023-07-28T06:40:30;2.10;;;1.90;;
12459;SDS011;6295;49.452;8.466;2023-07-28T06:44:34;2.77;;;2.30;;
12459;SDS011;6295;49.452;8.466;2023-07-28T06:48:36;2.23;;;2.03;;
12459;SDS011;6295;49.452;8.466;2023-07-28T06:52:38;2.90;;;1.97;;
12459;SDS011;6295;49.452;8.466;2023-07-28T06:56:42;2.27;;;1.93;;
12459;SDS011;6295;49.452;8.466;2023-07-28T07:00:48;2.20;;;2.00;;
12459;SDS011;6295;49.452;8.466;2023-07-28T07:04:50;2.40;;;2.20;;
12459;SDS011;6295;49.452;8.466;2023-07-28T07:08:52;2.40;;;2.20;;
12459;SDS011;6295;49.452;8.466;2023-07-28T07:12:54;2.33;;;2.13;;
12459;SDS011;6295;49.452;8.466;2023-07-28T07:16:58;2.40;;;2.20;;
12459;SDS011;6295;49.452;8.466;2023-07-28T07:21:01;2.40;;;2.20;;
12459;SDS011;6295;49.452;8.466;2023-07-28T07:25:04;2.50;;;2.30;;
12459;SDS011;6295;49.452;8.466;2023-07-28T07:29:07;2.50;;;2.30;;
12459;SDS011;6295;49.452;8.466;2023-07-28T07:33:11;2.50;;;2.30;;
12459;SDS011;6295;49.452;8.466;2023-07-28T07:37:13;2.40;;;2.20;;
12459;SDS011;6295;49.452;8.466;2023-07-28T07:41:18;2.43;;;2.23;;
12459;SDS011;6295;49.452;8.466;2023-07-28T07:45:24;2.50;;;2.30;;
12459;SDS011;6295;49.452;8.466;2023-07-28T07:49:27;2.60;;;2.40;;
12459;SDS011;6295;49.452;8.466;2023-07-28T07:53:29;2.57;;;2.37;;
12459;SDS011;6295;49.452;8.466;2023-07-28T07:57:32;2.50;;;2.30;;
12459;SDS011;6295;49.452;8.466;2023-07-28T08:01:34;2.80;;;2.60;;
12459;SDS011;6295;49.452;8.466;2023-07-28T08:05:38;2.50;;;2.30;;
12459;SDS011;6295;49.452;8.466;2023-07-28T08:09:40;2.27;;;2.13;;
12459;SDS011;6295;49.452;8.466;2023-07-28T08:13:42;2.40;;;2.20;;
12459;SDS011;6295;49.452;8.466;2023-07-28T08:17:45;2.47;;;2.17;;
12459;SDS011;6295;49.452;8.466;2023-07-28T08:21:48;2.50;;;2.27;;
12459;SDS011;6295;49.452;8.466;2023-07-28T08:25:51;2.30;;;2.10;;
12459;SDS011;6295;49.452;8.466;2023-07-28T08:29:53;2.60;;;2.40;;
12459;SDS011;6295;49.452;8.466;2023-07-28T08:33:55;2.57;;;2.37;;
12459;SDS011;6295;49.452;8.466;2023-07-28T08:37:59;2.50;;;2.30;;
12459;SDS011;6295;49.452;8.466;2023-07-28T08:42:01;2.97;;;2.77;;
12459;SDS011;6295;49.452;8.466;2023-07-28T08:46:04;2.97;;;2.60;;
12459;SDS011;6295;49.452;8.466;2023-07-28T08:50:07;3.03;;;2.80;;
12459;SDS011;6295;49.452;8.466;2023-07-28T08:54:11;3.23;;;2.93;;
12459;SDS011;6295;49.452;8.466;2023-07-28T08:58:14;3.50;;;2.90;;
12459;SDS011;6295;49.452;8.466;2023-07-28T09:02:18;2.93;;;2.60;;
12459;SDS011;6295;49.452;8.466;2023-07-28T09:06:27;3.03;;;2.60;;
12459;SDS011;6295;49.452;8.466;2023-07-28T09:10:41;2.50;;;2.30;;
12459;SDS011;6295;49.452;8.466;2023-07-28T09:14:47;3.10;;;2.87;;
12459;SDS011;6295;49.452;8.466;2023-07-28T09:19:03;3.33;;;2.70;;
12459;SDS011;6295;49.452;8.466;2023-07-28T09:23:07;2.37;;;2.17;;
12459;SDS011;6295;49.452;8.466;2023-07-28T09:27:13;2.60;;;2.40;;
12459;SDS011;6295;49.452;8.466;2023-07-28T09:31:28;2.57;;;2.37;;
12459;SDS011;6295;49.452;8.466;2023-07-28T09:35:31;2.43;;;2.23;;
12459;SDS011;6295;49.452;8.466;2023-07-28T09:39:33;2.23;;;2.07;;
12459;SDS011;6295;49.452;8.466;2023-07-28T09:43:42;2.00;;;1.90;;
12459;SDS011;6295;49.452;8.466;2023-07-28T09:47:50;2.30;;;2.10;;
12459;SDS011;6295;49.452;8.466;2023-07-28T09:51:59;2.40;;;2.20;;
12459;SDS011;6295;49.452;8.466;2023-07-28T09:56:05;2.70;;;2.50;;
12459;SDS011;6295;49.452;8.466;2023-07-28T10:00:12;2.60;;;2.40;;
12459;SDS011;6295;49.452;8.466;2023-07-28T10:04:16;2.50;;;2.30;;
12459;SDS011;6295;49.452;8.466;2023-07-28T10:08:18;2.40;;;2.20;;
12459;SDS011;6295;49.452;8.466;2023-07-28T10:12:23;2.43;;;2.10;;
12459;SDS011;6295;49.452;8.466;2023-07-28T10:16:34;2.90;;;2.23;;
12459;SDS011;6295;49.452;8.466;2023-07-28T10:20:42;2.73;;;2.53;;
12459;SDS011;6295;49.452;8.466;2023-07-28T10:24:49;2.50;;;2.30;;
12459;SDS011;6295;49.452;8.466;2023-07-28T10:28:52;3.80;;;2.73;;
12459;SDS011;6295;49.452;8.466;2023-07-28T10:32:56;2.63;;;2.43;;
12459;SDS011;6295;49.452;8.466;2023-07-28T10:36:58;3.97;;;2.80;;
12459;SDS011;6295;49.452;8.466;2023-07-28T10:41:07;3.10;;;2.90;;
12459;SDS011;6295;49.452;8.466;2023-07-28T10:45:14;3.40;;;3.10;;
12459;SDS011;6295;49.452;8.466;2023-07-28T10:49:18;2.93;;;2.73;;
12459;SDS011;6295;49.452;8.466;2023-07-28T10:53:21;3.43;;;3.13;;
12459;SDS011;6295;49.452;8.466;2023-07-28T10:57:23;3.67;;;3.37;;
12459;SDS011;6295;49.452;8.466;2023-07-28T11:01:32;3.43;;;3.13;;
12459;SDS011;6295;49.452;8.466;2023-07-28T11:05:36;3.60;;;3.30;;
12459;SDS011;6295;49.452;8.466;2023-07-28T11:09:40;3.40;;;3.10;;
12459;SDS011;6295;49.452;8.466;2023-07-28T11:13:42;3.30;;;3.10;;
12459;SDS011;6295;49.452;8.466;2023-07-28T11:17:45;3.77;;;3.47;;
12459;SDS011;6295;49.452;8.466;2023-07-28T11:21:53;3.00;;;2.80;;
12459;SDS011;6295;49.452;8.466;2023-07-28T11:26:01;3.70;;;3.40;;
12459;SDS011;6295;49.452;8.466;2023-07-28T11:30:07;3.70;;;3.40;;
12459;SDS011;6295;49.452;8.466;2023-07-28T11:34:14;3.20;;;2.90;;
12459;SDS011;6295;49.452;8.466;2023-07-28T11:38:19;3.20;;;3.00;;
12459;SDS011;6295;49.452;8.466;2023-07-28T11:42:22;2.97;;;2.77;;
12459;SDS011;6295;49.452;8.466;2023-07-28T11:46:31;2.93;;;2.70;;
12459;SDS011;6295;49.452;8.466;2023-07-28T11:50:34;3.37;;;2.43;;
12459;SDS011;6295;49.452;8.466;2023-07-28T11:54:40;2.80;;;2.60;;
12459;SDS011;6295;49.452;8.466;2023-07-28T11:58:42;2.10;;;2.00;;
12459;SDS011;6295;49.452;8.466;2023-07-28T12:02:45;2.80;;;2.47;;
12459;SDS011;6295;49.452;8.466;2023-07-28T12:07:00;2.40;;;2.20;;
12459;SDS011;6295;49.452;8.466;2023-07-28T12:11:12;2.27;;;2.17;;
12459;SDS011;6295;49.452;8.466;2023-07-28T12:15:24;2.40;;;2.20;;
12459;SDS011;6295;49.452;8.466;2023-07-28T12:19:28;2.50;;;2.30;;
12459;SDS011;6295;49.452;8.466;2023-07-28T12:23:30;2.23;;;2.10;;
12459;SDS011;6295;49.452;8.466;2023-07-28T12:27:34;2.30;;;2.10;;
12459;SDS011;6295;49.452;8.466;2023-07-28T12:31:36;2.50;;;2.30;;
12459;SDS011;6295;49.452;8.466;2023-07-28T12:35:39;2.10;;;2.00;;
12459;SDS011;6295;49.452;8.466;2023-07-28T12:39:41;2.10;;;2.00;;
12459;SDS011;6295;49.452;8.466;2023-07-28T12:43:46;1.73;;;1.63;;
12459;SDS011;6295;49.452;8.466;2023-07-28T12:47:48;2.03;;;1.50;;
12459;SDS011;6295;49.452;8.466;2023-07-28T12:51:50;1.70;;;1.60;;
12459;SDS011;6295;49.452;8.466;2023-07-28T12:55:53;1.80;;;1.70;;
12459;SDS011;6295;49.452;8.466;2023-07-28T12:59:56;2.60;;;1.83;;
12459;SDS011;6295;49.452;8.466;2023-07-28T13:04:00;1.73;;;1.63;;
12459;SDS011;6295;49.452;8.466;2023-07-28T13:08:03;1.87;;;1.70;;
12459;SDS011;6295;49.452;8.466;2023-07-28T13:12:06;1.90;;;1.70;;
12459;SDS011;6295;49.452;8.466;2023-07-28T13:16:10;2.00;;;1.90;;
12459;SDS011;6295;49.452;8.466;2023-07-28T13:20:12;2.10;;;1.90;;
12459;SDS011;6295;49.452;8.466;2023-07-28T13:24:14;2.20;;;2.00;;
12459;SDS011;6295;49.452;8.466;2023-07-28T13:28:17;2.33;;;1.93;;
12459;SDS011;6295;49.452;8.466;2023-07-28T13:32:24;3.47;;;2.20;;
12459;SDS011;6295;49.452;8.466;2023-07-28T13:36:27;3.80;;;2.23;;
12459;SDS011;6295;49.452;8.466;2023-07-28T13:40:31;2.23;;;2.03;;
12459;SDS011;6295;49.452;8.466;2023-07-28T13:44:36;2.37;;;2.17;;
12459;SDS011;6295;49.452;8.466;2023-07-28T13:48:41;2.37;;;2.17;;
12459;SDS011;6295;49.452;8.466;2023-07-28T13:52:44;2.67;;;2.47;;
12459;SDS011;6295;49.452;8.466;2023-07-28T13:56:46;2.60;;;2.33;;
12459;SDS011;6295;49.452;8.466;2023-07-28T14:00:48;2.53;;;2.33;;
12459;SDS011;6295;49.452;8.466;2023-07-28T14:04:52;3.83;;;2.73;;
12459;SDS011;6295;49.452;8.466;2023-07-28T14:08:54;3.53;;;3.23;;
12459;SDS011;6295;49.452;8.466;2023-07-28T14:12:56;3.40;;;3.10;;
12459;SDS011;6295;49.452;8.466;2023-07-28T14:16:58;3.70;;;3.40;;
12459;SDS011;6295;49.452;8.466;2023-07-28T14:21:02;3.83;;;3.43;;
12459;SDS011;6295;49.452;8.466;2023-07-28T14:25:04;4.30;;;3.87;;
12459;SDS011;6295;49.452;8.466;2023-07-28T14:29:07;4.00;;;3.60;;
12459;SDS011;6295;49.452;8.466;2023-07-28T14:33:09;3.77;;;3.47;;
12459;SDS011;6295;49.452;8.466;2023-07-28T14:37:13;3.67;;;3.37;;
12459;SDS011;6295;49.452;8.466;2023-07-28T14:41:15;3.83;;;3.50;;
12459;SDS011;6295;49.452;8.466;2023-07-28T14:45:18;3.93;;;3.53;;
12459;SDS011;6295;49.452;8.466;2023-07-28T14:49:21;3.63;;;3.33;;
12459;SDS011;6295;49.452;8.466;2023-07-28T14:53:31;3.77;;;3.40;;
12459;SDS011;6295;49.452;8.466;2023-07-28T14:57:34;3.30;;;3.03;;
12459;SDS011;6295;49.452;8.466;2023-07-28T15:01:37;3.47;;;3.17;;
12459;SDS011;6295;49.452;8.466;2023-07-28T15:05:39;3.33;;;3.03;;
12459;SDS011;6295;49.452;8.466;2023-07-28T15:09:44;4.97;;;3.37;;
12459;SDS011;6295;49.452;8.466;2023-07-28T15:13:47;3.20;;;2.90;;
12459;SDS011;6295;49.452;8.466;2023-07-28T15:17:49;3.13;;;2.83;;
12459;SDS011;6295;49.452;8.466;2023-07-28T15:21:52;3.83;;;3.10;;
12459;SDS011;6295;49.452;8.466;2023-07-28T15:25:55;3.27;;;2.97;;
12459;SDS011;6295;49.452;8.466;2023-07-28T15:29:58;2.83;;;2.63;;
12459;SDS011;6295;49.452;8.466;2023-07-28T15:34:01;3.07;;;2.77;;
12459;SDS011;6295;49.452;8.466;2023-07-28T15:38:03;3.27;;;2.97;;
12459;SDS011;6295;49.452;8.466;2023-07-28T15:42:10;3.73;;;3.30;;
12459;SDS011;6295;49.452;8.466;2023-07-28T15:46:14;3.43;;;3.13;;
12459;SDS011;6295;49.452;8.466;2023-07-28T15:50:16;3.57;;;3.20;;
12459;SDS011;6295;49.452;8.466;2023-07-28T15:54:19;3.97;;;3.07;;
12459;SDS011;6295;49.452;8.466;2023-07-28T15:58:22;3.23;;;2.90;;
12459;SDS011;6295;49.452;8.466;2023-07-28T16:02:25;3.50;;;3.20;;
12459;SDS011;6295;49.452;8.466;2023-07-28T16:06:27;3.23;;;2.93;;
12459;SDS011;6295;49.452;8.466;2023-07-28T16:10:30;3.10;;;2.80;;
12459;SDS011;6295;49.452;8.466;2023-07-28T16:14:33;3.13;;;2.83;;
12459;SDS011;6295;49.452;8.466;2023-07-28T16:18:37;2.57;;;2.37;;
12459;SDS011;6295;49.452;8.466;2023-07-28T16:22:45;2.60;;;2.40;;
12459;SDS011;6295;49.452;8.466;2023-07-28T16:26:50;2.73;;;2.50;;
12459;SDS011;6295;49.452;8.466;2023-07-28T16:30:53;2.50;;;2.30;;
12459;SDS011;6295;49.452;8.466;2023-07-28T16:34:56;2.67;;;2.47;;
12459;SDS011;6295;49.452;8.466;2023-07-28T16:38:58;4.27;;;2.20;;
12459;SDS011;6295;49.452;8.466;2023-07-28T16:43:00;2.60;;;2.40;;
12459;SDS011;6295;49.452;8.466;2023-07-28T16:47:05;2.40;;;2.20;;
12459;SDS011;6295;49.452;8.466;2023-07-28T16:51:10;2.50;;;2.30;;
12459;SDS011;6295;49.452;8.466;2023-07-28T16:55:14;2.90;;;2.60;;
12459;SDS011;6295;49.452;8.466;2023-07-28T16:59:17;2.70;;;2.50;;
12459;SDS011;6295;49.452;8.466;2023-07-28T17:03:21;2.70;;;2.50;;
12459;SDS011;6295;49.452;8.466;2023-07-28T17:07:24;3.30;;;2.77;;
12459;SDS011;6295;49.452;8.466;2023-07-28T17:11:26;2.80;;;2.60;;
12459;SDS011;6295;49.452;8.466;2023-07-28T17:15:30;3.20;;;2.90;;
12459;SDS011;6295;49.452;8.466;2023-07-28T17:19:36;2.73;;;2.53;;
12459;SDS011;6295;49.452;8.466;2023-07-28T17:23:38;3.07;;;2.80;;
12459;SDS011;6295;49.452;8.466;2023-07-28T17:27:40;2.90;;;2.70;;
12459;SDS011;6295;49.452;8.466;2023-07-28T17:31:42;3.00;;;2.80;;
12459;SDS011;6295;49.452;8.466;2023-07-28T17:35:46;3.07;;;2.87;;
12459;SDS011;6295;49.452;8.466;2023-07-28T17:39:49;3.43;;;3.07;;
12459;SDS011;6295;49.452;8.466;2023-07-28T17:43:51;2.90;;;2.70;;
12459;SDS011;6295;49.452;8.466;2023-07-28T17:47:53;3.77;;;3.20;;
12459;SDS011;6295;49.452;8.466;2023-07-28T17:51:57;3.50;;;3.20;;
12459;SDS011;6295;49.452;8.466;2023-07-28T17:55:59;3.40;;;3.10;;
12459;SDS011;6295;49.452;8.466;2023-07-28T18:00:02;3.50;;;3.20;;
12459;SDS011;6295;49.452;8.466;2023-07-28T18:04:06;3.40;;;3.10;;
12459;SDS011;6295;49.452;8.466;2023-07-28T18:08:09;3.20;;;2.97;;
12459;SDS011;6295;49.452;8.466;2023-07-28T18:12:12;3.40;;;3.10;;
12459;SDS011;6295;49.452;8.466;2023-07-28T18:16:14;6.03;;;3.17;;
12459;SDS011;6295;49.452;8.466;2023-07-28T18:20:18;4.13;;;3.37;;
12459;SDS011;6295;49.452;8.466;2023-07-28T18:24:24;3.70;;;3.40;;
12459;SDS011;6295;49.452;8.466;2023-07-28T18:28:27;3.70;;;3.27;;
12459;SDS011;6295;49.452;8.466;2023-07-28T18:32:29;3.57;;;3.27;;
12459;SDS011;6295;49.452;8.466;2023-07-28T18:36:31;3.57;;;3.27;;
12459;SDS011;6295;49.452;8.466;2023-07-28T18:40:35;3.60;;;3.30;;
12459;SDS011;6295;49.452;8.466;2023-07-28T18:44:37;3.93;;;3.63;;
12459;SDS011;6295;49.452;8.466;2023-07-28T18:48:39;3.50;;;3.20;;
12459;SDS011;6295;49.452;8.466;2023-07-28T18:52:42;4.23;;;3.83;;
